sensor_id;sensor_type;location;lat;lon;timestamp;pressure;altitude;pressure_sealevel;temperature;humidity
24788;BME280;12883;52.662;5.196;2022-12-13T00:01:23;101355.31;;;-0.94;100.00
24788;BME280;12883;52.662;5.196;2022-12-13T00:03:51;101360.88;;;-0.99;100.00
24788;BME280;12883;52.662;5.196;2022-12-13T00:06:17;101347.66;;;-0.96;100.00
24788;BME280;12883;52.662;5.196;2022-12-13T00:08:42;101346.69;;;-0.95;100.00
24788;BME280;12883;52.662;5.196;2022-12-13T00:11:10;101348.56;;;-0.97;100.00
24788;BME280;12883;52.662;5.196;2022-12-13T00:13:36;101337.47;;;-0.88;100.00
24788;BME280;12883;52.662;5.196;2022-12-13T00:16:03;101340.19;;;-0.89;100.00
24788;BME280;12883;52.662;5.196;2022-12-13T00:18:30;101273.91;;;-1.31;100.00
24788;BME280;12883;52.662;5.196;2022-12-13T00:20:55;101343.03;;;-0.92;100.00
24788;BME280;12883;52.662;5.196;2022-12-13T00:23:21;101328.94;;;-0.90;100.00
24788;BME280;12883;52.662;5.196;2022-12-13T00:25:46;101330.16;;;-0.83;100.00
24788;BME280;12883;52.662;5.196;2022-12-13T00:28:12;101301.69;;;-0.97;100.00
24788;BME280;12883;52.662;5.196;2022-12-13T00:30:38;101323.31;;;-0.73;100.00
24788;BME280;12883;52.662;5.196;2022-12-13T00:33:04;101329.22;;;-0.82;100.00
24788;BME280;12883;52.662;5.196;2022-12-13T00:35:38;101320.97;;;-0.76;100.00
24788;BME280;12883;52.662;5.196;2022-12-13T00:38:03;101328.38;;;-0.82;100.00
24788;BME280;12883;52.662;5.196;2022-12-13T00:40:28;101325.06;;;-0.84;100.00
24788;BME280;12883;52.662;5.196;2022-12-13T00:42:54;101316.66;;;-0.88;100.00
24788;BME280;12883;52.662;5.196;2022-12-13T00:45:19;101315.75;;;-0.76;100.00
24788;BME280;12883;52.662;5.196;2022-12-13T00:47:45;101314.41;;;-0.81;100.00
24788;BME280;12883;52.662;5.196;2022-12-13T00:50:10;101303.63;;;-0.77;100.00
24788;BME280;12883;52.662;5.196;2022-12-13T00:52:35;101218.78;;;-1.25;100.00
24788;BME280;12883;52.662;5.196;2022-12-13T00:55:01;101310.44;;;-0.63;100.00
24788;BME280;12883;52.662;5.196;2022-12-13T00:57:26;101311.03;;;-0.60;100.00
24788;BME280;12883;52.662;5.196;2022-12-13T00:59:51;101247.97;;;-0.98;100.00
24788;BME280;12883;52.662;5.196;2022-12-13T01:02:17;101313.16;;;-0.65;100.00
24788;BME280;12883;52.662;5.196;2022-12-13T01:04:42;101312.34;;;-0.65;100.00
24788;BME280;12883;52.662;5.196;2022-12-13T01:07:07;101309.84;;;-0.56;100.00
24788;BME280;12883;52.662;5.196;2022-12-13T01:09:33;101296.47;;;-0.62;100.00
24788;BME280;12883;52.662;5.196;2022-12-13T01:12:01;101297.75;;;-0.57;100.00
24788;BME280;12883;52.662;5.196;2022-12-13T01:14:27;101294.94;;;-0.54;100.00
24788;BME280;12883;52.662;5.196;2022-12-13T01:16:52;101300.84;;;-0.52;100.00
24788;BME280;12883;52.662;5.196;2022-12-13T01:19:25;101305.81;;;-0.60;100.00
24788;BME280;12883;52.662;5.196;2022-12-13T01:21:54;101298.97;;;-0.61;100.00
24788;BME280;12883;52.662;5.196;2022-12-13T01:24:19;101273.59;;;-0.81;100.00
24788;BME280;12883;52.662;5.196;2022-12-13T01:26:47;101303.44;;;-0.63;100.00
24788;BME280;12883;52.662;5.196;2022-12-13T01:29:12;101304.38;;;-0.64;100.00
24788;BME280;12883;52.662;5.196;2022-12-13T01:31:37;101311.25;;;-0.63;100.00
24788;BME280;12883;52.662;5.196;2022-12-13T01:34:06;101306.75;;;-0.72;100.00
24788;BME280;12883;52.662;5.196;2022-12-13T01:36:34;101282.34;;;-0.82;100.00
24788;BME280;12883;52.662;5.196;2022-12-13T01:39:00;101253.41;;;-1.01;100.00
24788;BME280;12883;52.662;5.196;2022-12-13T01:41:27;101320.34;;;-0.79;100.00
24788;BME280;12883;52.662;5.196;2022-12-13T01:43:55;101309.22;;;-0.70;100.00
24788;BME280;12883;52.662;5.196;2022-12-13T01:46:20;101308.63;;;-0.74;100.00
24788;BME280;12883;52.662;5.196;2022-12-13T01:48:51;101327.69;;;-0.73;100.00
24788;BME280;12883;52.662;5.196;2022-12-13T01:51:20;101317.00;;;-0.81;100.00
24788;BME280;12883;52.662;5.196;2022-12-13T01:53:49;101317.00;;;-0.81;100.00
24788;BME280;12883;52.662;5.196;2022-12-13T01:56:23;101314.31;;;-0.80;100.00
24788;BME280;12883;52.662;5.196;2022-12-13T01:58:53;101320.47;;;-0.70;100.00
24788;BME280;12883;52.662;5.196;2022-12-13T02:01:20;101313.09;;;-0.87;100.00
24788;BME280;12883;52.662;5.196;2022-12-13T02:03:46;101321.09;;;-1.01;100.00
24788;BME280;12883;52.662;5.196;2022-12-13T02:06:35;101312.59;;;-1.03;100.00
24788;BME280;12883;52.662;5.196;2022-12-13T02:09:05;101337.16;;;-1.07;100.00
24788;BME280;12883;52.662;5.196;2022-12-13T02:11:31;101322.00;;;-1.13;100.00
24788;BME280;12883;52.662;5.196;2022-12-13T02:13:57;101318.25;;;-0.98;100.00
24788;BME280;12883;52.662;5.196;2022-12-13T02:22:12;101311.84;;;-1.05;100.00
24788;BME280;12883;52.662;5.196;2022-12-13T02:25:29;101310.44;;;-0.98;100.00
24788;BME280;12883;52.662;5.196;2022-12-13T02:31:16;101317.41;;;-1.09;100.00
24788;BME280;12883;52.662;5.196;2022-12-13T02:38:59;101320.75;;;-1.31;100.00
24788;BME280;12883;52.662;5.196;2022-12-13T02:41:49;101318.59;;;-1.37;100.00
24788;BME280;12883;52.662;5.196;2022-12-13T02:44:32;101317.75;;;-1.37;100.00
24788;BME280;12883;52.662;5.196;2022-12-13T02:47:18;101285.88;;;-1.52;100.00
24788;BME280;12883;52.662;5.196;2022-12-13T02:49:49;101310.78;;;-1.37;100.00
24788;BME280;12883;52.662;5.196;2022-12-13T02:52:17;101301.63;;;-1.42;100.00
24788;BME280;12883;52.662;5.196;2022-12-13T02:54:44;101311.13;;;-1.41;100.00
24788;BME280;12883;52.662;5.196;2022-12-13T02:57:45;101304.81;;;-1.50;100.00
24788;BME280;12883;52.662;5.196;2022-12-13T03:00:27;101307.59;;;-1.53;100.00
24788;BME280;12883;52.662;5.196;2022-12-13T03:03:07;101303.25;;;-1.52;100.00
24788;BME280;12883;52.662;5.196;2022-12-13T03:05:44;101301.00;;;-1.57;100.00
24788;BME280;12883;52.662;5.196;2022-12-13T03:11:17;101297.88;;;-1.62;100.00
24788;BME280;12883;52.662;5.196;2022-12-13T03:16:35;101291.06;;;-1.75;100.00
24788;BME280;12883;52.662;5.196;2022-12-13T03:19:05;101305.59;;;-1.73;100.00
24788;BME280;12883;52.662;5.196;2022-12-13T03:24:04;101284.66;;;-1.95;100.00
24788;BME280;12883;52.662;5.196;2022-12-13T03:26:29;101251.69;;;-2.18;100.00
24788;BME280;12883;52.662;5.196;2022-12-13T03:28:54;101293.38;;;-1.83;100.00
24788;BME280;12883;52.662;5.196;2022-12-13T03:31:20;101292.88;;;-1.88;100.00
24788;BME280;12883;52.662;5.196;2022-12-13T03:33:46;101284.34;;;-1.90;100.00
24788;BME280;12883;52.662;5.196;2022-12-13T03:36:12;101301.50;;;-1.88;100.00
24788;BME280;12883;52.662;5.196;2022-12-13T03:38:39;101293.91;;;-1.91;100.00
24788;BME280;12883;52.662;5.196;2022-12-13T03:41:08;101291.59;;;-1.83;100.00
24788;BME280;12883;52.662;5.196;2022-12-13T03:43:34;101283.09;;;-1.85;100.00
24788;BME280;12883;52.662;5.196;2022-12-13T03:46:00;101295.88;;;-1.82;100.00
24788;BME280;12883;52.662;5.196;2022-12-13T03:48:25;101264.53;;;-2.04;100.00
24788;BME280;12883;52.662;5.196;2022-12-13T03:50:52;101275.91;;;-1.94;100.00
24788;BME280;12883;52.662;5.196;2022-12-13T03:53:19;101236.81;;;-2.16;100.00
24788;BME280;12883;52.662;5.196;2022-12-13T03:55:44;101152.03;;;-2.53;100.00
24788;BME280;12883;52.662;5.196;2022-12-13T03:58:10;101272.53;;;-1.71;100.00
24788;BME280;12883;52.662;5.196;2022-12-13T04:00:35;101275.56;;;-1.77;100.00
24788;BME280;12883;52.662;5.196;2022-12-13T04:03:00;101270.56;;;-1.67;100.00
24788;BME280;12883;52.662;5.196;2022-12-13T04:05:26;101270.56;;;-1.67;100.00
24788;BME280;12883;52.662;5.196;2022-12-13T04:07:52;101275.66;;;-1.66;100.00
24788;BME280;12883;52.662;5.196;2022-12-13T04:10:18;101272.53;;;-1.71;100.00
24788;BME280;12883;52.662;5.196;2022-12-13T04:12:43;101268.16;;;-1.70;100.00
24788;BME280;12883;52.662;5.196;2022-12-13T04:15:27;101267.88;;;-1.78;100.00
24788;BME280;12883;52.662;5.196;2022-12-13T04:17:52;101258.41;;;-1.79;100.00
24788;BME280;12883;52.662;5.196;2022-12-13T04:20:17;101264.22;;;-1.76;100.00
24788;BME280;12883;52.662;5.196;2022-12-13T04:22:43;101258.59;;;-1.70;100.00
24788;BME280;12883;52.662;5.196;2022-12-13T04:25:08;101265.44;;;-1.69;100.00
24788;BME280;12883;52.662;5.196;2022-12-13T04:27:33;101258.34;;;-1.67;100.00
24788;BME280;12883;52.662;5.196;2022-12-13T04:29:59;101258.78;;;-1.73;100.00
24788;BME280;12883;52.662;5.196;2022-12-13T04:32:24;101259.97;;;-1.77;100.00
24788;BME280;12883;52.662;5.196;2022-12-13T04:34:49;101257.13;;;-1.74;100.00
24788;BME280;12883;52.662;5.196;2022-12-13T04:37:15;101233.56;;;-1.83;100.00
24788;BME280;12883;52.662;5.196;2022-12-13T04:39:40;101247.84;;;-1.89;100.00
24788;BME280;12883;52.662;5.196;2022-12-13T04:42:06;101257.19;;;-1.86;100.00
24788;BME280;12883;52.662;5.196;2022-12-13T04:44:31;101249.31;;;-1.97;100.00
24788;BME280;12883;52.662;5.196;2022-12-13T04:46:57;101256.81;;;-1.93;100.00
24788;BME280;12883;52.662;5.196;2022-12-13T04:49:22;101259.09;;;-2.01;100.00
24788;BME280;12883;52.662;5.196;2022-12-13T04:51:48;101227.91;;;-2.24;100.00
24788;BME280;12883;52.662;5.196;2022-12-13T04:54:13;101243.31;;;-1.98;100.00
24788;BME280;12883;52.662;5.196;2022-12-13T04:56:38;101255.13;;;-1.94;100.00
24788;BME280;12883;52.662;5.196;2022-12-13T04:59:04;101244.97;;;-1.97;100.00
24788;BME280;12883;52.662;5.196;2022-12-13T05:01:29;101237.88;;;-1.95;100.00
24788;BME280;12883;52.662;5.196;2022-12-13T05:03:54;101236.78;;;-1.80;100.00
24788;BME280;12883;52.662;5.196;2022-12-13T05:06:20;101236.34;;;-1.74;100.00
24788;BME280;12883;52.662;5.196;2022-12-13T05:08:45;101236.56;;;-1.77;100.00
24788;BME280;12883;52.662;5.196;2022-12-13T05:11:10;101235.00;;;-1.79;100.00
24788;BME280;12883;52.662;5.196;2022-12-13T05:13:36;101236.44;;;-1.99;100.00
24788;BME280;12883;52.662;5.196;2022-12-13T05:16:04;101239.75;;;-1.97;100.00
24788;BME280;12883;52.662;5.196;2022-12-13T05:18:30;101179.88;;;-2.19;100.00
24788;BME280;12883;52.662;5.196;2022-12-13T05:21:00;101236.50;;;-1.88;100.00
24788;BME280;12883;52.662;5.196;2022-12-13T05:23:26;101237.44;;;-1.89;100.00
24788;BME280;12883;52.662;5.196;2022-12-13T05:25:51;101241.66;;;-1.99;100.00
24788;BME280;12883;52.662;5.196;2022-12-13T05:28:17;101230.31;;;-1.98;100.00
24788;BME280;12883;52.662;5.196;2022-12-13T05:30:43;101217.38;;;-2.10;100.00
24788;BME280;12883;52.662;5.196;2022-12-13T05:33:09;101246.84;;;-1.99;100.00
24788;BME280;12883;52.662;5.196;2022-12-13T05:35:34;101227.28;;;-1.92;100.00
24788;BME280;12883;52.662;5.196;2022-12-13T05:38:00;101225.09;;;-1.98;100.00
24788;BME280;12883;52.662;5.196;2022-12-13T05:40:27;101181.44;;;-2.29;100.00
24788;BME280;12883;52.662;5.196;2022-12-13T05:42:53;101225.63;;;-1.93;100.00
24788;BME280;12883;52.662;5.196;2022-12-13T05:45:19;101223.84;;;-1.92;100.00
24788;BME280;12883;52.662;5.196;2022-12-13T05:47:45;101221.84;;;-1.89;100.00
24788;BME280;12883;52.662;5.196;2022-12-13T05:50:11;101226.38;;;-1.80;100.00
24788;BME280;12883;52.662;5.196;2022-12-13T05:52:36;101224.94;;;-1.84;100.00
24788;BME280;12883;52.662;5.196;2022-12-13T05:55:02;101220.78;;;-1.86;100.00
24788;BME280;12883;52.662;5.196;2022-12-13T05:57:28;101218.97;;;-1.97;100.00
24788;BME280;12883;52.662;5.196;2022-12-13T05:59:53;101233.25;;;-1.79;100.00
24788;BME280;12883;52.662;5.196;2022-12-13T06:02:19;101216.38;;;-1.73;100.00
24788;BME280;12883;52.662;5.196;2022-12-13T06:04:44;101214.94;;;-1.77;100.00
24788;BME280;12883;52.662;5.196;2022-12-13T06:07:10;101214.44;;;-1.82;100.00
24788;BME280;12883;52.662;5.196;2022-12-13T06:09:36;101219.94;;;-1.87;100.00
24788;BME280;12883;52.662;5.196;2022-12-13T06:12:01;101221.66;;;-1.98;100.00
24788;BME280;12883;52.662;5.196;2022-12-13T06:14:27;101216.38;;;-1.97;100.00
24788;BME280;12883;52.662;5.196;2022-12-13T06:16:52;101217.50;;;-1.88;100.00
24788;BME280;12883;52.662;5.196;2022-12-13T06:19:21;101218.31;;;-1.88;100.00
24788;BME280;12883;52.662;5.196;2022-12-13T06:21:51;101189.81;;;-2.13;100.00
24788;BME280;12883;52.662;5.196;2022-12-13T06:24:18;101222.56;;;-1.87;100.00
24788;BME280;12883;52.662;5.196;2022-12-13T06:26:45;101219.81;;;-1.96;100.00
24788;BME280;12883;52.662;5.196;2022-12-13T06:29:11;101221.66;;;-1.98;100.00
24788;BME280;12883;52.662;5.196;2022-12-13T06:31:36;101190.63;;;-2.00;100.00
24788;BME280;12883;52.662;5.196;2022-12-13T06:34:03;101226.59;;;-1.83;100.00
24788;BME280;12883;52.662;5.196;2022-12-13T06:36:28;101227.66;;;-1.85;100.00
24788;BME280;12883;52.662;5.196;2022-12-13T06:38:54;101227.44;;;-1.82;100.00
24788;BME280;12883;52.662;5.196;2022-12-13T06:41:19;101229.22;;;-1.83;100.00
24788;BME280;12883;52.662;5.196;2022-12-13T06:43:45;101221.66;;;-1.86;100.00
24788;BME280;12883;52.662;5.196;2022-12-13T06:46:12;101206.91;;;-1.98;100.00
24788;BME280;12883;52.662;5.196;2022-12-13T06:48:37;101164.16;;;-2.17;100.00
24788;BME280;12883;52.662;5.196;2022-12-13T06:51:06;101240.94;;;-1.77;100.00
24788;BME280;12883;52.662;5.196;2022-12-13T06:53:34;101232.09;;;-1.75;100.00
24788;BME280;12883;52.662;5.196;2022-12-13T06:56:04;101232.47;;;-1.68;100.00
24788;BME280;12883;52.662;5.196;2022-12-13T06:58:30;101229.53;;;-1.64;100.00
24788;BME280;12883;52.662;5.196;2022-12-13T07:03:27;101202.88;;;-1.78;100.00
24788;BME280;12883;52.662;5.196;2022-12-13T07:05:54;101237.38;;;-1.53;100.00
24788;BME280;12883;52.662;5.196;2022-12-13T07:08:19;101241.44;;;-1.49;100.00
24788;BME280;12883;52.662;5.196;2022-12-13T07:10:44;101246.47;;;-1.58;100.00
24788;BME280;12883;52.662;5.196;2022-12-13T07:13:10;101236.41;;;-1.63;100.00
24788;BME280;12883;52.662;5.196;2022-12-13T07:15:35;101232.50;;;-1.57;100.00
24788;BME280;12883;52.662;5.196;2022-12-13T07:18:00;101240.38;;;-1.70;100.00
24788;BME280;12883;52.662;5.196;2022-12-13T07:20:26;101243.00;;;-1.70;100.00
24788;BME280;12883;52.662;5.196;2022-12-13T07:22:51;101244.88;;;-1.72;100.00
24788;BME280;12883;52.662;5.196;2022-12-13T07:25:20;101242.47;;;-1.75;100.00
24788;BME280;12883;52.662;5.196;2022-12-13T07:27:46;101246.28;;;-1.68;100.00
24788;BME280;12883;52.662;5.196;2022-12-13T07:30:13;101245.31;;;-1.54;100.00
24788;BME280;12883;52.662;5.196;2022-12-13T07:32:39;101251.22;;;-1.52;100.00
24788;BME280;12883;52.662;5.196;2022-12-13T07:35:04;101257.91;;;-1.61;100.00
24788;BME280;12883;52.662;5.196;2022-12-13T07:37:30;101260.25;;;-1.69;100.00
24788;BME280;12883;52.662;5.196;2022-12-13T07:39:55;101260.69;;;-1.75;100.00
24788;BME280;12883;52.662;5.196;2022-12-13T07:42:20;101252.72;;;-1.61;100.00
24788;BME280;12883;52.662;5.196;2022-12-13T07:44:46;101255.56;;;-1.64;100.00
24788;BME280;12883;52.662;5.196;2022-12-13T07:47:11;101254.22;;;-1.69;100.00
24788;BME280;12883;52.662;5.196;2022-12-13T07:49:36;101257.13;;;-1.74;100.00
24788;BME280;12883;52.662;5.196;2022-12-13T07:52:02;101252.50;;;-1.58;100.00
24788;BME280;12883;52.662;5.196;2022-12-13T07:54:28;101247.41;;;-1.59;100.00
24788;BME280;12883;52.662;5.196;2022-12-13T07:56:53;101260.25;;;-1.69;100.00
24788;BME280;12883;52.662;5.196;2022-12-13T07:59:18;101256.19;;;-1.73;100.00
24788;BME280;12883;52.662;5.196;2022-12-13T08:01:44;101260.16;;;-1.67;100.00
24788;BME280;12883;52.662;5.196;2022-12-13T08:04:09;101258.34;;;-1.67;100.00
24788;BME280;12883;52.662;5.196;2022-12-13T08:06:36;101255.72;;;-1.78;100.00
24788;BME280;12883;52.662;5.196;2022-12-13T08:09:02;101258.94;;;-1.87;100.00
24788;BME280;12883;52.662;5.196;2022-12-13T08:11:27;101225.59;;;-2.29;100.00
24788;BME280;12883;52.662;5.196;2022-12-13T08:13:53;101267.22;;;-1.93;100.00
24788;BME280;12883;52.662;5.196;2022-12-13T08:16:19;101267.97;;;-1.80;100.00
24788;BME280;12883;52.662;5.196;2022-12-13T08:18:44;101267.78;;;-1.77;100.00
24788;BME280;12883;52.662;5.196;2022-12-13T08:21:12;101294.22;;;-1.83;100.00
24788;BME280;12883;52.662;5.196;2022-12-13T08:23:37;101274.28;;;-1.95;100.00
24788;BME280;12883;52.662;5.196;2022-12-13T08:26:04;101277.81;;;-1.96;100.00
24788;BME280;12883;52.662;5.196;2022-12-13T08:28:31;101291.72;;;-1.84;100.00
24788;BME280;12883;52.662;5.196;2022-12-13T08:31:08;101284.34;;;-1.90;100.00
24788;BME280;12883;52.662;5.196;2022-12-13T08:33:39;101278.13;;;-1.64;100.00
24788;BME280;12883;52.662;5.196;2022-12-13T08:36:14;101286.31;;;-1.81;100.00
24788;BME280;12883;52.662;5.196;2022-12-13T08:38:41;101281.91;;;-1.81;100.00
24788;BME280;12883;52.662;5.196;2022-12-13T08:41:07;101293.16;;;-1.80;100.00
24788;BME280;12883;52.662;5.196;2022-12-13T08:43:33;101277.94;;;-1.74;100.00
24788;BME280;12883;52.662;5.196;2022-12-13T08:45:58;101278.19;;;-1.53;100.00
24788;BME280;12883;52.662;5.196;2022-12-13T08:48:24;101280.69;;;-1.52;100.00
24788;BME280;12883;52.662;5.196;2022-12-13T08:50:49;101288.03;;;-1.46;100.00
24788;BME280;12883;52.662;5.196;2022-12-13T08:53:14;101275.75;;;-1.44;100.00
24788;BME280;12883;52.662;5.196;2022-12-13T08:55:39;101277.84;;;-1.49;100.00
24788;BME280;12883;52.662;5.196;2022-12-13T08:58:05;101261.28;;;-1.71;100.00
24788;BME280;12883;52.662;5.196;2022-12-13T09:00:33;101275.06;;;-1.35;100.00
24788;BME280;12883;52.662;5.196;2022-12-13T09:02:59;101299.19;;;-1.33;100.00
24788;BME280;12883;52.662;5.196;2022-12-13T09:05:24;101280.03;;;-1.32;100.00
24788;BME280;12883;52.662;5.196;2022-12-13T09:07:54;101268.91;;;-1.34;100.00
24788;BME280;12883;52.662;5.196;2022-12-13T09:10:20;101281.53;;;-1.17;100.00
24788;BME280;12883;52.662;5.196;2022-12-13T09:12:45;101282.94;;;-1.13;100.00
24788;BME280;12883;52.662;5.196;2022-12-13T09:15:11;101281.63;;;-1.18;100.00
24788;BME280;12883;52.662;5.196;2022-12-13T09:17:36;101285.34;;;-1.10;100.00
24788;BME280;12883;52.662;5.196;2022-12-13T09:20:02;101276.59;;;-1.09;100.00
24788;BME280;12883;52.662;5.196;2022-12-13T09:22:28;101275.66;;;-0.97;100.00
24788;BME280;12883;52.662;5.196;2022-12-13T09:24:54;101281.25;;;-0.90;100.00
24788;BME280;12883;52.662;5.196;2022-12-13T09:27:19;101285.16;;;-0.85;100.00
24788;BME280;12883;52.662;5.196;2022-12-13T09:29:45;101265.06;;;-0.72;100.00
24788;BME280;12883;52.662;5.196;2022-12-13T09:32:11;101275.03;;;-0.66;100.00
24788;BME280;12883;52.662;5.196;2022-12-13T09:34:36;101275.03;;;-0.66;100.00
24788;BME280;12883;52.662;5.196;2022-12-13T09:37:02;101268.03;;;-0.54;100.00
24788;BME280;12883;52.662;5.196;2022-12-13T09:39:28;101248.13;;;-0.66;100.00
24788;BME280;12883;52.662;5.196;2022-12-13T09:41:55;101262.03;;;-0.33;100.00
24788;BME280;12883;52.662;5.196;2022-12-13T09:44:36;101263.88;;;-0.35;100.00
24788;BME280;12883;52.662;5.196;2022-12-13T09:47:11;101265.81;;;-0.26;100.00
24788;BME280;12883;52.662;5.196;2022-12-13T09:49:42;101268.59;;;-0.07;100.00
24788;BME280;12883;52.662;5.196;2022-12-13T09:52:14;101259.13;;;0.03;100.00
24788;BME280;12883;52.662;5.196;2022-12-13T09:54:43;101264.47;;;0.01;100.00
24788;BME280;12883;52.662;5.196;2022-12-13T09:57:15;101238.06;;;-0.16;100.00
24788;BME280;12883;52.662;5.196;2022-12-13T09:59:42;101205.13;;;-0.17;100.00
24788;BME280;12883;52.662;5.196;2022-12-13T10:02:16;101247.00;;;0.13;100.00
24788;BME280;12883;52.662;5.196;2022-12-13T10:04:45;101242.09;;;0.30;100.00
24788;BME280;12883;52.662;5.196;2022-12-13T10:07:19;100749.28;;;-2.61;100.00
24788;BME280;12883;52.662;5.196;2022-12-13T10:09:46;101239.06;;;0.57;100.00
24788;BME280;12883;52.662;5.196;2022-12-13T10:12:14;101240.94;;;0.55;100.00
24788;BME280;12883;52.662;5.196;2022-12-13T10:14:49;101242.63;;;0.56;100.00
24788;BME280;12883;52.662;5.196;2022-12-13T10:17:20;101238.31;;;0.55;100.00
24788;BME280;12883;52.662;5.196;2022-12-13T10:19:49;101243.59;;;0.75;100.00
24788;BME280;12883;52.662;5.196;2022-12-13T10:22:17;101237.03;;;0.81;100.00
24788;BME280;12883;52.662;5.196;2022-12-13T10:27:27;101241.63;;;0.88;100.00
24788;BME280;12883;52.662;5.196;2022-12-13T10:32:27;101231.94;;;1.00;100.00
24788;BME280;12883;52.662;5.196;2022-12-13T10:34:54;101237.13;;;1.20;100.00
24788;BME280;12883;52.662;5.196;2022-12-13T10:37:29;101225.44;;;1.15;100.00
24788;BME280;12883;52.662;5.196;2022-12-13T10:39:55;101243.47;;;1.18;100.00
24788;BME280;12883;52.662;5.196;2022-12-13T10:42:21;101220.19;;;1.15;100.00
24788;BME280;12883;52.662;5.196;2022-12-13T10:44:47;101191.69;;;1.02;100.00
24788;BME280;12883;52.662;5.196;2022-12-13T10:47:21;101223.25;;;1.20;100.00
24788;BME280;12883;52.662;5.196;2022-12-13T10:49:49;101228.22;;;1.23;100.00
24788;BME280;12883;52.662;5.196;2022-12-13T10:52:38;101228.03;;;1.15;100.00
24788;BME280;12883;52.662;5.196;2022-12-13T10:55:25;101221.03;;;1.15;100.00
24788;BME280;12883;52.662;5.196;2022-12-13T10:57:53;101209.06;;;1.43;100.00
24788;BME280;12883;52.662;5.196;2022-12-13T11:02:59;101151.13;;;1.08;100.00
24788;BME280;12883;52.662;5.196;2022-12-13T11:05:28;101211.63;;;1.63;100.00
24788;BME280;12883;52.662;5.196;2022-12-13T11:07:53;101213.50;;;1.52;100.00
24788;BME280;12883;52.662;5.196;2022-12-13T11:10:25;101211.75;;;1.62;100.00
24788;BME280;12883;52.662;5.196;2022-12-13T11:12:54;101213.38;;;1.53;100.00
24788;BME280;12883;52.662;5.196;2022-12-13T11:15:23;101201.38;;;1.51;100.00
24788;BME280;12883;52.662;5.196;2022-12-13T11:17:56;101198.38;;;1.55;100.00
24788;BME280;12883;52.662;5.196;2022-12-13T11:20:25;101208.97;;;1.54;100.00
24788;BME280;12883;52.662;5.196;2022-12-13T11:23:18;101202.78;;;1.55;100.00
24788;BME280;12883;52.662;5.196;2022-12-13T11:25:47;101196.50;;;1.67;100.00
24788;BME280;12883;52.662;5.196;2022-12-13T11:35:07;101201.31;;;1.62;100.00
24788;BME280;12883;52.662;5.196;2022-12-13T11:37:46;101199.22;;;1.56;100.00
24788;BME280;12883;52.662;5.196;2022-12-13T11:40:39;101191.09;;;1.59;100.00
24788;BME280;12883;52.662;5.196;2022-12-13T11:46:01;101169.69;;;1.84;100.00
24788;BME280;12883;52.662;5.196;2022-12-13T11:48:41;101179.03;;;1.77;100.00
24788;BME280;12883;52.662;5.196;2022-12-13T11:51:09;101178.47;;;1.73;100.00
24788;BME280;12883;52.662;5.196;2022-12-13T11:59:21;101169.44;;;1.87;100.00
24788;BME280;12883;52.662;5.196;2022-12-13T12:01:53;101161.75;;;1.95;100.00
24788;BME280;12883;52.662;5.196;2022-12-13T12:04:43;101157.63;;;2.02;100.00
24788;BME280;12883;52.662;5.196;2022-12-13T12:09:50;101169.06;;;2.01;100.00
24788;BME280;12883;52.662;5.196;2022-12-13T12:12:36;101162.72;;;1.94;100.00
24788;BME280;12883;52.662;5.196;2022-12-13T12:15:28;101166.53;;;1.90;100.00
24788;BME280;12883;52.662;5.196;2022-12-13T12:17:56;101160.50;;;1.99;100.00
24788;BME280;12883;52.662;5.196;2022-12-13T12:20:43;101169.84;;;1.92;100.00
24788;BME280;12883;52.662;5.196;2022-12-13T12:25:48;101167.09;;;1.93;100.00
24788;BME280;12883;52.662;5.196;2022-12-13T12:31:27;101165.31;;;1.94;100.00
24788;BME280;12883;52.662;5.196;2022-12-13T12:37:09;101173.97;;;1.85;100.00
24788;BME280;12883;52.662;5.196;2022-12-13T12:49:49;101178.06;;;1.78;100.00
24788;BME280;12883;52.662;5.196;2022-12-13T12:55:16;101185.53;;;1.73;100.00
24788;BME280;12883;52.662;5.196;2022-12-13T12:58:03;101175.06;;;1.82;100.00
24788;BME280;12883;52.662;5.196;2022-12-13T13:01:28;101083.59;;;1.43;100.00
24788;BME280;12883;52.662;5.196;2022-12-13T13:03:34;101156.91;;;1.90;100.00
24788;BME280;12883;52.662;5.196;2022-12-13T13:06:27;101156.38;;;1.87;100.00
24788;BME280;12883;52.662;5.196;2022-12-13T13:08:59;101161.59;;;1.87;100.00
24788;BME280;12883;52.662;5.196;2022-12-13T13:11:29;101164.47;;;1.84;100.00
24788;BME280;12883;52.662;5.196;2022-12-13T13:18:52;101107.41;;;1.40;100.00
24788;BME280;12883;52.662;5.196;2022-12-13T13:21:26;101160.19;;;1.73;100.00
24788;BME280;12883;52.662;5.196;2022-12-13T13:24:10;101155.78;;;1.74;100.00
24788;BME280;12883;52.662;5.196;2022-12-13T13:26:40;101150.41;;;1.75;100.00
24788;BME280;12883;52.662;5.196;2022-12-13T13:31:54;101139.81;;;1.77;100.00
24788;BME280;12883;52.662;5.196;2022-12-13T13:34:32;101135.34;;;1.49;100.00
24788;BME280;12883;52.662;5.196;2022-12-13T13:36:59;101138.63;;;1.51;100.00
24788;BME280;12883;52.662;5.196;2022-12-13T13:50:04;101132.84;;;1.47;100.00
24788;BME280;12883;52.662;5.196;2022-12-13T13:53:23;101114.13;;;1.33;100.00
24788;BME280;12883;52.662;5.196;2022-12-13T14:09:57;101131.19;;;1.07;100.00
24788;BME280;12883;52.662;5.196;2022-12-13T14:18:36;101124.56;;;0.93;100.00
24788;BME280;12883;52.662;5.196;2022-12-13T14:22:16;101118.22;;;0.96;100.00
24788;BME280;12883;52.662;5.196;2022-12-13T14:24:24;101120.81;;;0.96;100.00
24788;BME280;12883;52.662;5.196;2022-12-13T14:29:43;101126.53;;;0.80;100.00
24788;BME280;12883;52.662;5.196;2022-12-13T14:32:20;101105.94;;;0.87;100.00
24788;BME280;12883;52.662;5.196;2022-12-13T14:34:46;101109.13;;;0.90;100.00
24788;BME280;12883;52.662;5.196;2022-12-13T14:37:25;101116.22;;;0.79;100.00
24788;BME280;12883;52.662;5.196;2022-12-13T14:39:52;101111.63;;;0.71;100.00
24788;BME280;12883;52.662;5.196;2022-12-13T14:42:31;101115.19;;;0.70;100.00
24788;BME280;12883;52.662;5.196;2022-12-13T14:47:51;101094.53;;;0.58;100.00
24788;BME280;12883;52.662;5.196;2022-12-13T14:50:17;101096.88;;;0.61;100.00